Terminal Aerodrome Forecast
Issued by NWS

Home | Current Version | Previous Version | Text Only | Print | Product List | Glossary Off
Versions: 1 2 3 4 5 6 7 8 9 10 11 12 13 14

000
FTUS44 KTSA 011100
TAFXNA
TAF
KXNA 011126Z 0112/0212 18003KT P6SM SCT250
     FM011600 18012KT P6SM SCT040 SCT250
     FM020000 16006KT P6SM SCT050 SCT100 SCT250
     FM020900 17006KT P6SM SCT010 SCT100 SCT250=

USA.gov is the U.S. government's official web portal to all federal, state and local government web resources and services.